createdAt,value
2018-11-01T00:01:32.982Z,13.13
2018-11-01T00:04:04.650Z,13.11
2018-11-01T00:06:34.650Z,13.09
2018-11-01T00:09:06.042Z,13.08
2018-11-01T00:11:36.033Z,13.04
2018-11-01T00:14:09.016Z,13.00
2018-11-01T00:16:39.045Z,12.70
2018-11-01T00:19:09.091Z,12.95
2018-11-01T00:21:39.126Z,12.91
2018-11-01T00:24:09.126Z,12.86
2018-11-01T00:26:39.133Z,12.82
2018-11-01T00:29:09.612Z,12.78
2018-11-01T00:31:39.626Z,12.74
2018-11-01T00:34:09.635Z,12.70
2018-11-01T00:36:39.656Z,12.64
2018-11-01T00:39:12.109Z,12.60
2018-11-01T00:41:42.128Z,12.56
2018-11-01T00:44:12.227Z,12.22
2018-11-01T00:46:42.210Z,12.49
2018-11-01T00:49:12.263Z,12.46
2018-11-01T00:51:42.208Z,12.44
2018-11-01T00:54:12.211Z,12.41
2018-11-01T00:56:42.287Z,12.13
2018-11-01T00:59:12.350Z,12.40
2018-11-01T01:01:42.355Z,12.37
2018-11-01T01:04:12.338Z,12.36
2018-11-01T01:06:43.302Z,12.34
2018-11-01T01:09:15.078Z,12.32
2018-11-01T01:11:45.095Z,12.28
2018-11-01T01:14:15.113Z,12.26
2018-11-01T01:16:45.081Z,12.25
2018-11-01T01:19:15.696Z,12.25
2018-11-01T01:21:45.715Z,12.24
2018-11-01T01:24:15.802Z,12.24
2018-11-01T01:27:09.964Z,12.22
2018-11-01T01:29:41.012Z,12.22
2018-11-01T01:32:10.991Z,12.21
2018-11-01T01:34:41.078Z,12.19
2018-11-01T01:37:11.682Z,12.15
2018-11-01T01:39:50.358Z,12.12
2018-11-01T02:13:44.326Z,11.77
2018-11-01T02:16:14.245Z,11.68
2018-11-01T02:18:44.176Z,11.63
2018-11-01T02:21:14.163Z,11.59
2018-11-01T02:23:44.150Z,11.55
2018-11-01T02:26:14.125Z,11.52
2018-11-01T02:28:44.065Z,11.50
2018-11-01T02:31:14.025Z,11.47
2018-11-01T02:33:44.045Z,11.47
2018-11-01T02:36:14.067Z,11.46
2018-11-01T02:38:44.117Z,11.46
2018-11-01T02:41:14.057Z,11.46
2018-11-01T02:43:43.958Z,11.45
2018-11-01T02:46:13.972Z,11.45
2018-11-01T02:48:43.958Z,11.43
2018-11-01T02:51:13.899Z,11.41
2018-11-01T02:53:43.876Z,11.37
2018-11-01T02:56:13.834Z,11.35
2018-11-01T02:58:43.888Z,11.33
2018-11-01T03:01:18.367Z,11.32
2018-11-01T03:03:49.619Z,11.28
2018-11-01T03:06:19.727Z,11.26
2018-11-01T03:08:49.683Z,11.22
2018-11-01T03:11:19.673Z,11.18
2018-11-01T03:13:49.636Z,11.12
2018-11-01T03:16:19.601Z,11.05
2018-11-01T03:18:49.572Z,10.97
2018-11-01T03:21:19.505Z,10.90
2018-11-01T03:23:49.489Z,10.81
2018-11-01T03:26:19.512Z,10.72
2018-11-01T03:28:49.442Z,10.64
2018-11-01T03:31:19.445Z,10.55
2018-11-01T03:33:49.441Z,10.47
2018-11-01T03:36:19.479Z,10.40
2018-11-01T03:38:49.496Z,10.33
2018-11-01T03:41:19.540Z,10.24
2018-11-01T03:43:49.513Z,10.17
2018-11-01T03:46:19.513Z,10.12
2018-11-01T03:48:49.585Z,10.08
2018-11-01T03:51:19.553Z,10.04
2018-11-01T03:53:49.585Z,10.01
2018-11-01T03:56:19.555Z,9.96
2018-11-01T03:58:49.580Z,9.93
2018-11-01T04:01:19.542Z,9.89
2018-11-01T04:03:49.534Z,9.86
2018-11-01T04:06:19.445Z,9.82
2018-11-01T04:08:49.407Z,9.78
2018-11-01T04:11:19.365Z,9.76
2018-11-01T04:13:49.396Z,9.76
2018-11-01T04:16:19.281Z,9.77
2018-11-01T04:18:49.210Z,9.77
2018-11-01T04:21:19.210Z,9.77
2018-11-01T04:23:49.031Z,9.77
2018-11-01T04:26:19.178Z,9.75
2018-11-01T04:28:49.146Z,9.71
2018-11-01T04:31:19.095Z,9.67
2018-11-01T04:33:49.155Z,9.64
2018-11-01T04:36:19.136Z,9.59
2018-11-01T04:38:49.059Z,9.53
2018-11-01T04:41:18.990Z,9.48
2018-11-01T04:43:48.968Z,9.42
2018-11-01T04:46:18.939Z,9.37
2018-11-01T04:48:48.943Z,9.29
2018-11-01T04:51:18.859Z,9.23
2018-11-01T04:53:48.788Z,9.19
2018-11-01T04:56:18.731Z,9.15
2018-11-01T04:58:48.673Z,9.08
2018-11-01T05:01:21.402Z,9.02
2018-11-01T05:03:53.522Z,8.98
2018-11-01T05:06:23.808Z,8.96
2018-11-01T05:08:53.771Z,8.97
2018-11-01T05:11:23.774Z,8.96
2018-11-01T05:13:53.758Z,8.96
2018-11-01T05:16:23.726Z,8.94
2018-11-01T05:18:53.673Z,8.92
2018-11-01T05:21:23.637Z,8.90
2018-11-01T05:23:53.610Z,8.85
2018-11-01T05:26:23.596Z,8.80
2018-11-01T05:28:53.651Z,8.76
2018-11-01T05:31:23.639Z,8.73
2018-11-01T05:33:53.612Z,8.69
2018-11-01T05:36:23.520Z,8.67
2018-11-01T05:38:53.485Z,8.64
2018-11-01T05:41:23.656Z,8.62
2018-11-01T05:43:53.663Z,8.59
2018-11-01T05:46:23.590Z,8.58
2018-11-01T05:48:53.545Z,8.56
2018-11-01T05:51:23.459Z,8.57
2018-11-01T05:53:53.444Z,8.57
2018-11-01T05:56:23.314Z,8.57
2018-11-01T05:58:53.214Z,8.60
2018-11-01T06:01:28.251Z,8.63
2018-11-01T06:03:58.264Z,8.67
2018-11-01T06:06:28.248Z,8.69
2018-11-01T06:08:58.395Z,8.74
2018-11-01T06:11:28.362Z,8.76
2018-11-01T06:13:58.293Z,8.79
2018-11-01T06:16:28.238Z,8.84
2018-11-01T06:18:58.274Z,8.87
2018-11-01T06:21:29.169Z,8.92
2018-11-01T06:23:59.152Z,8.97
2018-11-01T06:26:29.135Z,9.02
2018-11-01T06:28:59.147Z,9.07
2018-11-01T06:31:29.116Z,9.12
2018-11-01T06:33:59.123Z,9.16
2018-11-01T06:36:29.122Z,9.23
2018-11-01T06:38:59.155Z,9.29
2018-11-01T06:41:29.120Z,9.35
2018-11-01T06:43:59.051Z,9.40
2018-11-01T06:46:29.042Z,9.45
2018-11-01T06:48:59.056Z,9.50
2018-11-01T06:51:29.059Z,9.56
2018-11-01T06:53:59.102Z,9.62
2018-11-01T06:56:29.118Z,9.67
2018-11-01T06:58:59.081Z,9.73
2018-11-01T07:01:29.074Z,9.79
2018-11-01T07:03:59.047Z,9.85
2018-11-01T07:06:28.994Z,9.89
2018-11-01T07:08:58.965Z,9.94
2018-11-01T07:11:29.038Z,9.99
2018-11-01T07:13:59.564Z,10.03
2018-11-01T07:16:29.611Z,10.06
2018-11-01T07:18:59.585Z,10.10
2018-11-01T07:21:29.543Z,10.13
2018-11-01T07:23:59.982Z,10.16
2018-11-01T07:26:30.057Z,10.19
2018-11-01T07:29:00.066Z,10.23
2018-11-01T07:31:30.069Z,10.26
2018-11-01T07:33:59.963Z,10.29
2018-11-01T07:36:29.989Z,10.33
2018-11-01T07:38:59.953Z,10.36
2018-11-01T07:41:29.930Z,10.38
2018-11-01T07:44:00.095Z,10.41
2018-11-01T07:46:30.569Z,10.44
2018-11-01T07:49:00.527Z,10.49
2018-11-01T07:51:30.473Z,10.56
2018-11-01T07:54:00.467Z,10.63
2018-11-01T07:56:30.518Z,10.71
2018-11-01T07:59:00.510Z,10.79
2018-11-01T08:01:31.675Z,10.86
2018-11-01T08:04:02.258Z,10.95
2018-11-01T08:06:32.288Z,11.05
2018-11-01T08:09:02.633Z,11.14
2018-11-01T08:11:32.771Z,11.23
2018-11-01T08:14:02.840Z,11.30
2018-11-01T08:16:32.821Z,11.38
2018-11-01T08:19:03.216Z,11.45
2018-11-01T08:21:33.239Z,11.51
2018-11-01T08:24:03.242Z,11.57
2018-11-01T08:26:33.254Z,11.65
2018-11-01T08:29:03.237Z,11.70
2018-11-01T08:31:33.263Z,11.77
2018-11-01T08:34:03.217Z,11.84
2018-11-01T08:36:33.219Z,11.92
2018-11-01T08:39:03.183Z,11.99
2018-11-01T08:41:33.139Z,12.08
2018-11-01T08:44:03.089Z,12.16
2018-11-01T08:46:33.107Z,12.26
2018-11-01T08:49:03.059Z,12.34
2018-11-01T08:51:33.091Z,12.42
2018-11-01T08:54:03.079Z,12.50
2018-11-01T08:56:33.066Z,12.58
2018-11-01T08:59:03.044Z,12.64
2018-11-01T09:01:33.320Z,12.68
2018-11-01T09:04:03.283Z,12.73
2018-11-01T09:06:33.334Z,12.76
2018-11-01T09:09:03.438Z,12.79
2018-11-01T09:11:33.460Z,12.84
2018-11-01T09:14:03.436Z,12.86
2018-11-01T09:16:33.442Z,12.88
2018-11-01T09:19:03.482Z,12.89
2018-11-01T09:21:34.064Z,12.92
2018-11-01T09:24:04.075Z,12.96
2018-11-01T09:26:34.090Z,12.98
2018-11-01T09:29:04.105Z,13.01
2018-11-01T09:31:34.062Z,13.04
2018-11-01T09:34:04.460Z,13.06
2018-11-01T09:36:34.589Z,13.10
2018-11-01T09:39:07.082Z,13.12
2018-11-01T09:41:37.169Z,13.15
2018-11-01T09:44:07.610Z,13.20
2018-11-01T09:46:37.791Z,13.24
2018-11-01T09:49:07.756Z,13.28
2018-11-01T09:51:37.738Z,13.31
2018-11-01T09:54:07.754Z,13.33
2018-11-01T09:56:37.764Z,13.35
2018-11-01T09:59:07.725Z,13.37
2018-11-01T10:01:37.679Z,13.39
2018-11-01T10:04:07.981Z,13.42
2018-11-01T10:06:38.008Z,13.44
2018-11-01T10:09:09.492Z,13.48
2018-11-01T10:11:39.468Z,13.50
2018-11-01T10:14:09.779Z,13.53
2018-11-01T10:16:40.117Z,13.56
2018-11-01T10:19:10.793Z,13.59
2018-11-01T10:21:40.825Z,13.62
2018-11-01T10:24:10.847Z,13.64
2018-11-01T10:26:40.938Z,13.65
2018-11-01T10:29:10.959Z,13.67
2018-11-01T10:31:41.075Z,13.70
2018-11-01T10:34:11.071Z,13.73
2018-11-01T10:36:41.096Z,13.77
2018-11-01T10:39:11.764Z,13.82
2018-11-01T10:41:41.701Z,13.88
2018-11-01T10:44:11.749Z,13.93
2018-11-01T10:46:41.719Z,13.98
2018-11-01T10:49:11.761Z,14.03
2018-11-01T10:51:41.760Z,14.06
2018-11-01T10:54:11.872Z,14.11
2018-11-01T10:56:41.830Z,14.14
2018-11-01T10:59:11.826Z,14.18
2018-11-01T11:01:43.986Z,14.21
2018-11-01T11:04:13.963Z,14.24
2018-11-01T11:06:44.077Z,14.27
2018-11-01T11:09:14.360Z,14.30
2018-11-01T11:11:44.326Z,14.32
2018-11-01T11:14:14.354Z,14.35
2018-11-01T11:16:44.323Z,14.35
2018-11-01T11:19:14.380Z,14.39
2018-11-01T11:21:44.451Z,14.39
2018-11-01T11:24:14.481Z,14.39
2018-11-01T11:26:44.519Z,14.38
2018-11-01T11:29:14.543Z,14.39
2018-11-01T11:31:44.572Z,14.41
2018-11-01T11:34:14.687Z,14.43
2018-11-01T11:36:44.717Z,14.46
2018-11-01T11:39:14.864Z,14.49
2018-11-01T11:41:44.829Z,14.52
2018-11-01T11:44:14.883Z,14.53
2018-11-01T11:46:44.925Z,14.54
2018-11-01T11:49:14.911Z,14.55
2018-11-01T11:51:44.977Z,14.57
2018-11-01T11:54:15.029Z,14.58
2018-11-01T11:56:45.086Z,14.57
2018-11-01T11:59:15.157Z,14.55
2018-11-01T12:01:45.215Z,14.54
2018-11-01T12:04:15.241Z,14.50
2018-11-01T12:06:45.259Z,14.50
2018-11-01T12:09:15.299Z,14.48
2018-11-01T12:11:45.291Z,14.46
2018-11-01T12:14:15.647Z,14.43
2018-11-01T12:16:45.702Z,14.43
2018-11-01T12:19:15.731Z,14.43
2018-11-01T12:21:45.785Z,14.43
2018-11-01T12:24:15.882Z,14.43
2018-11-01T12:26:45.932Z,14.43
2018-11-01T12:29:15.999Z,14.42
2018-11-01T12:31:46.027Z,14.40
2018-11-01T12:34:16.007Z,14.38
2018-11-01T12:36:46.034Z,14.34
2018-11-01T12:39:15.993Z,14.31
2018-11-01T12:41:46.004Z,14.27
2018-11-01T12:44:16.027Z,14.24
2018-11-01T12:46:45.966Z,14.20
2018-11-01T12:49:16.107Z,14.17
2018-11-01T12:51:46.217Z,14.11
2018-11-01T12:54:16.273Z,14.05
2018-11-01T12:56:46.348Z,14.01
2018-11-01T12:59:16.377Z,13.99
2018-11-01T13:01:46.427Z,13.97
2018-11-01T13:04:16.463Z,13.97
2018-11-01T13:06:46.938Z,13.97
2018-11-01T13:09:17.299Z,13.98
2018-11-01T13:11:47.299Z,13.99
2018-11-01T13:14:17.256Z,14.00
2018-11-01T13:16:47.248Z,13.99
2018-11-01T13:19:17.251Z,13.99
2018-11-01T13:21:47.306Z,13.99
2018-11-01T13:24:17.448Z,13.97
2018-11-01T13:26:47.425Z,13.95
2018-11-01T13:29:17.496Z,13.94
2018-11-01T13:31:47.413Z,13.94
2018-11-01T13:34:17.441Z,13.96
2018-11-01T13:36:47.420Z,13.95
2018-11-01T13:39:17.456Z,13.95
2018-11-01T13:41:47.583Z,13.96
2018-11-01T13:44:17.561Z,13.95
2018-11-01T13:46:47.522Z,13.97
2018-11-01T13:49:17.528Z,13.96
2018-11-01T13:51:47.500Z,13.95
2018-11-01T13:54:17.492Z,13.95
2018-11-01T13:56:47.478Z,13.92
2018-11-01T13:59:17.434Z,13.87
2018-11-01T14:01:47.481Z,13.83
2018-11-01T14:04:17.455Z,13.79
2018-11-01T14:06:47.604Z,13.75
2018-11-01T14:09:17.577Z,13.72
2018-11-01T14:11:47.631Z,13.69
2018-11-01T14:14:18.046Z,13.68
2018-11-01T14:16:47.585Z,13.64
2018-11-01T14:19:17.612Z,13.60
2018-11-01T14:21:47.616Z,13.55
2018-11-01T14:24:17.687Z,13.47
2018-11-01T14:26:47.700Z,13.42
2018-11-01T14:29:17.698Z,13.37
2018-11-01T14:31:47.728Z,13.31
2018-11-01T14:34:17.715Z,13.26
2018-11-01T14:36:47.728Z,13.21
2018-11-01T14:39:17.765Z,13.18
2018-11-01T14:41:47.806Z,13.13
2018-11-01T14:44:17.835Z,13.07
2018-11-01T14:46:47.856Z,13.00
2018-11-01T14:49:17.871Z,12.95
2018-11-01T14:51:48.383Z,12.89
2018-11-01T14:54:18.876Z,12.85
2018-11-01T14:56:50.093Z,12.80
2018-11-01T14:59:19.716Z,12.77
2018-11-01T15:01:48.409Z,12.73
2018-11-01T15:04:18.443Z,12.68
2018-11-01T15:06:49.280Z,12.65
2018-11-01T15:09:19.101Z,12.60
2018-11-01T15:11:49.141Z,12.57
2018-11-01T15:14:19.132Z,12.52
2018-11-01T15:16:49.189Z,12.49
2018-11-01T15:19:19.314Z,12.45
2018-11-01T15:21:49.268Z,12.42
2018-11-01T15:24:19.250Z,12.40
2018-11-01T15:26:49.265Z,12.36
2018-11-01T15:29:19.288Z,12.33
2018-11-01T15:31:49.336Z,12.29
2018-11-01T15:34:19.363Z,12.27
2018-11-01T15:36:49.399Z,12.25
2018-11-01T15:39:19.403Z,12.24
2018-11-01T15:41:49.392Z,12.22
2018-11-01T15:44:19.364Z,12.21
2018-11-01T15:46:49.938Z,12.19
2018-11-01T15:49:19.894Z,12.17
2018-11-01T15:51:49.935Z,12.15
2018-11-01T15:54:19.948Z,12.13
2018-11-01T15:56:49.952Z,12.11
2018-11-01T15:59:20.104Z,12.09
2018-11-01T16:01:50.078Z,12.07
2018-11-01T16:04:20.131Z,12.07
2018-11-01T16:06:50.218Z,12.06
2018-11-01T16:09:20.210Z,12.05
2018-11-01T16:11:50.186Z,12.04
2018-11-01T16:14:20.200Z,12.04
2018-11-01T16:16:50.233Z,12.03
2018-11-01T16:19:20.236Z,12.02
2018-11-01T16:21:50.173Z,12.02
2018-11-01T16:24:20.189Z,12.01
2018-11-01T16:26:50.242Z,11.99
2018-11-01T16:29:20.277Z,11.98
2018-11-01T16:31:50.352Z,11.98
2018-11-01T16:34:20.396Z,11.95
2018-11-01T16:36:50.415Z,11.94
2018-11-01T16:39:20.403Z,11.94
2018-11-01T16:41:50.425Z,11.91
2018-11-01T16:44:20.471Z,11.91
2018-11-01T16:46:50.449Z,11.88
2018-11-01T16:49:20.426Z,11.85
2018-11-01T16:51:50.374Z,11.82
2018-11-01T16:54:20.457Z,11.80
2018-11-01T16:56:50.482Z,11.77
2018-11-01T16:59:20.468Z,11.77
2018-11-01T17:01:50.490Z,11.76
2018-11-01T17:04:20.419Z,11.76
2018-11-01T17:06:50.504Z,11.77
2018-11-01T17:09:20.571Z,11.80
2018-11-01T17:11:50.621Z,11.82
2018-11-01T17:14:20.583Z,11.84
2018-11-01T17:16:50.609Z,11.86
2018-11-01T17:19:20.572Z,11.87
2018-11-01T17:21:50.534Z,11.91
2018-11-01T17:24:20.565Z,11.92
2018-11-01T17:26:50.634Z,11.93
2018-11-01T17:29:20.652Z,11.92
2018-11-01T17:31:50.677Z,11.91
2018-11-01T17:34:20.719Z,11.92
2018-11-01T17:36:50.858Z,11.91
2018-11-01T17:39:21.396Z,11.90
2018-11-01T17:41:51.644Z,11.90
2018-11-01T17:44:21.684Z,11.91
2018-11-01T17:46:51.768Z,11.91
2018-11-01T17:49:21.809Z,11.90
2018-11-01T17:51:54.525Z,11.91
2018-11-01T17:54:24.690Z,11.91
2018-11-01T17:56:54.918Z,11.93
2018-11-01T17:59:24.921Z,11.94
2018-11-01T18:01:55.109Z,11.94
2018-11-01T18:04:25.157Z,11.93
2018-11-01T18:06:55.386Z,11.93
2018-11-01T18:09:25.804Z,11.91
2018-11-01T18:11:55.787Z,11.87
2018-11-01T18:14:25.799Z,11.84
2018-11-01T18:16:55.790Z,11.82
2018-11-01T18:19:25.823Z,11.78
2018-11-01T18:21:55.823Z,11.75
2018-11-01T18:24:25.826Z,11.71
2018-11-01T18:26:55.857Z,11.71
2018-11-01T18:29:25.844Z,11.68
2018-11-01T18:31:55.848Z,11.68
2018-11-01T18:34:25.863Z,11.66
2018-11-01T18:36:55.909Z,11.64
2018-11-01T18:39:26.064Z,11.62
2018-11-01T18:41:55.963Z,11.60
2018-11-01T18:44:26.179Z,11.58
2018-11-01T18:46:56.242Z,11.56
2018-11-01T18:49:26.279Z,11.52
2018-11-01T18:51:56.229Z,11.49
2018-11-01T18:54:26.262Z,11.48
2018-11-01T18:56:56.263Z,11.47
2018-11-01T18:59:26.335Z,11.45
2018-11-01T19:01:56.361Z,11.45
2018-11-01T19:04:26.378Z,11.44
2018-11-01T19:06:56.374Z,11.45
2018-11-01T19:09:26.403Z,11.46
2018-11-01T19:11:56.401Z,11.48
2018-11-01T19:14:26.522Z,11.48
2018-11-01T19:16:56.492Z,11.49
2018-11-01T19:19:26.538Z,11.51
2018-11-01T19:21:56.673Z,11.52
2018-11-01T19:24:26.592Z,11.52
2018-11-01T19:26:56.722Z,11.52
2018-11-01T19:29:26.659Z,11.53
2018-11-01T19:31:56.666Z,11.55
2018-11-01T19:34:26.954Z,11.55
2018-11-01T19:36:56.835Z,11.57
2018-11-01T19:39:26.925Z,11.59
2018-11-01T19:41:57.052Z,11.61
2018-11-01T19:44:27.041Z,11.63
2018-11-01T19:46:57.050Z,11.64
2018-11-01T19:49:27.160Z,11.66
2018-11-01T19:51:57.200Z,11.68
2018-11-01T19:54:27.257Z,11.69
2018-11-01T19:56:57.294Z,11.73
2018-11-01T19:59:27.379Z,11.74
2018-11-01T20:01:58.260Z,11.75
2018-11-01T20:04:28.299Z,11.76
2018-11-01T20:06:58.284Z,11.77
2018-11-01T20:09:28.348Z,11.77
2018-11-01T20:11:58.341Z,11.78
2018-11-01T20:14:28.388Z,11.78
2018-11-01T20:16:58.508Z,11.81
2018-11-01T20:19:28.519Z,11.82
2018-11-01T20:21:58.709Z,11.84
2018-11-01T20:24:28.713Z,11.86
2018-11-01T20:26:58.784Z,11.90
2018-11-01T20:29:28.748Z,11.92
2018-11-01T20:31:59.081Z,11.94
2018-11-01T20:34:28.921Z,11.96
2018-11-01T20:36:58.910Z,11.98
2018-11-01T20:39:28.957Z,11.99
2018-11-01T20:41:59.036Z,12.00
2018-11-01T20:44:29.096Z,12.01
2018-11-01T20:46:59.156Z,12.02
2018-11-01T20:49:29.213Z,12.03
2018-11-01T20:51:59.352Z,12.03
2018-11-01T20:54:29.407Z,12.04
2018-11-01T20:56:59.544Z,12.05
2018-11-01T20:59:29.563Z,12.05
2018-11-01T21:01:59.618Z,12.07
2018-11-01T21:04:29.682Z,12.07
2018-11-01T21:06:59.725Z,12.07
2018-11-01T21:09:29.764Z,12.06
2018-11-01T21:11:59.913Z,12.07
2018-11-01T21:14:29.798Z,12.06
2018-11-01T21:16:59.900Z,12.07
2018-11-01T21:19:29.820Z,12.08
2018-11-01T21:21:59.817Z,12.09
2018-11-01T21:24:29.835Z,12.10
2018-11-01T21:26:59.870Z,12.11
2018-11-01T21:29:30.044Z,12.13
2018-11-01T21:32:00.008Z,12.16
2018-11-01T21:34:30.009Z,12.18
2018-11-01T21:37:00.043Z,12.22
2018-11-01T21:39:30.194Z,12.26
2018-11-01T21:42:00.339Z,12.29
2018-11-01T21:44:30.347Z,12.33
2018-11-01T21:47:00.403Z,12.37
2018-11-01T21:49:30.686Z,12.41
2018-11-01T21:52:00.848Z,12.45
2018-11-01T21:54:30.851Z,12.47
2018-11-01T21:57:00.978Z,12.51
2018-11-01T21:59:31.225Z,12.55
2018-11-01T22:02:01.346Z,12.58
2018-11-01T22:04:31.404Z,12.60
2018-11-01T22:07:01.451Z,12.61
2018-11-01T22:09:31.469Z,12.64
2018-11-01T22:12:01.434Z,12.66
2018-11-01T22:14:31.507Z,12.69
2018-11-01T22:17:01.509Z,12.73
2018-11-01T22:19:31.561Z,12.75
2018-11-01T22:22:01.579Z,12.78
2018-11-01T22:24:31.625Z,12.83
2018-11-01T22:27:02.288Z,12.84
2018-11-01T22:29:32.246Z,12.87
2018-11-01T22:32:03.054Z,12.89
2018-11-01T22:34:33.177Z,12.90
2018-11-01T22:37:03.155Z,12.92
2018-11-01T22:39:33.170Z,12.93
2018-11-01T22:42:03.470Z,12.94
2018-11-01T22:44:33.448Z,12.96
2018-11-01T22:47:03.446Z,12.97
2018-11-01T22:49:33.466Z,12.99
2018-11-01T22:52:03.428Z,13.01
2018-11-01T22:54:33.465Z,13.02
2018-11-01T22:57:03.505Z,13.03
2018-11-01T22:59:33.496Z,13.04
2018-11-01T23:02:04.023Z,13.06
2018-11-01T23:04:34.219Z,13.08
2018-11-01T23:07:04.224Z,13.08
2018-11-01T23:09:34.207Z,13.10
2018-11-01T23:12:04.113Z,13.11
2018-11-01T23:14:34.068Z,13.13
2018-11-01T23:17:04.031Z,13.14
2018-11-01T23:19:34.006Z,13.15
2018-11-01T23:22:04.004Z,13.14
2018-11-01T23:24:33.963Z,13.16
2018-11-01T23:27:03.989Z,13.17
2018-11-01T23:29:33.916Z,13.16
2018-11-01T23:32:04.066Z,13.15
2018-11-01T23:34:33.956Z,13.16
2018-11-01T23:37:08.896Z,13.15
2018-11-01T23:39:43.839Z,13.16
2018-11-01T23:42:18.760Z,13.16
2018-11-01T23:44:53.841Z,13.17
2018-11-01T23:47:28.741Z,13.14
2018-11-01T23:50:08.541Z,13.13
2018-11-01T23:52:40.001Z,13.11
2018-11-01T23:55:09.894Z,13.09
2018-11-01T23:57:39.784Z,13.07
